createdAt,value
2023-04-03T00:01:01.641Z,2.22
2023-04-03T00:03:29.499Z,2.40
2023-04-03T00:05:57.097Z,1.90
2023-04-03T00:08:24.801Z,2.10
2023-04-03T00:10:52.531Z,2.20
2023-04-03T00:13:21.576Z,2.35
2023-04-03T00:15:49.274Z,2.50
2023-04-03T00:18:16.979Z,2.50
2023-04-03T00:20:44.807Z,2.20
2023-04-03T00:23:12.848Z,2.38
2023-04-03T00:25:40.720Z,2.40
2023-04-03T00:28:08.757Z,2.63
2023-04-03T00:30:38.186Z,2.75
2023-04-03T00:33:06.336Z,2.55
2023-04-03T00:35:35.986Z,2.60
2023-04-03T00:38:04.533Z,2.50
2023-04-03T00:40:37.393Z,2.50
2023-04-03T00:43:14.443Z,2.55
2023-04-03T00:45:45.610Z,2.20
2023-04-03T00:48:17.980Z,2.55
2023-04-03T00:50:47.136Z,2.50
2023-04-03T00:53:18.376Z,2.40
2023-04-03T00:55:48.170Z,2.55
2023-04-03T00:58:17.864Z,2.80
2023-04-03T01:00:54.634Z,2.53
2023-04-03T01:03:22.669Z,2.50
2023-04-03T01:05:50.804Z,2.53
2023-04-03T01:08:18.788Z,2.50
2023-04-03T01:10:46.434Z,2.57
2023-04-03T01:13:24.050Z,2.70
2023-04-03T01:15:53.466Z,2.60
2023-04-03T01:18:21.745Z,2.73
2023-04-03T01:21:24.997Z,2.58
2023-04-03T01:24:02.280Z,2.60
2023-04-03T01:26:30.396Z,2.50
2023-04-03T01:29:00.722Z,2.65
2023-04-03T01:31:36.269Z,2.70
2023-04-03T01:34:05.430Z,2.72
2023-04-03T01:36:33.962Z,2.83
2023-04-03T01:39:02.811Z,2.67
2023-04-03T01:41:31.139Z,2.97
2023-04-03T01:43:58.760Z,2.90
2023-04-03T01:46:26.655Z,2.95
2023-04-03T01:48:54.329Z,2.80
2023-04-03T01:51:23.831Z,2.70
2023-04-03T01:53:52.618Z,2.75
2023-04-03T01:56:21.122Z,2.85
2023-04-03T01:58:48.874Z,2.88
2023-04-03T02:01:17.242Z,2.88
2023-04-03T02:03:45.693Z,3.10
2023-04-03T02:06:13.407Z,2.80
2023-04-03T02:08:42.807Z,2.97
2023-04-03T02:11:10.422Z,2.67
2023-04-03T02:13:38.275Z,2.58
2023-04-03T02:16:10.845Z,2.60
2023-04-03T02:18:38.740Z,2.80
2023-04-03T02:21:12.370Z,2.50
2023-04-03T02:23:40.064Z,2.47
2023-04-03T02:26:11.514Z,2.70
2023-04-03T02:28:39.718Z,2.60
2023-04-03T02:31:08.343Z,2.70
2023-04-03T02:33:37.497Z,2.80
2023-04-03T02:36:07.408Z,2.58
2023-04-03T02:38:35.959Z,2.60
2023-04-03T02:41:04.949Z,2.70
2023-04-03T02:43:34.245Z,2.70
2023-04-03T02:46:01.924Z,2.75
2023-04-03T02:48:29.589Z,2.85
2023-04-03T02:50:57.427Z,2.80
2023-04-03T02:53:25.439Z,2.67
2023-04-03T02:55:53.179Z,2.83
2023-04-03T02:58:20.844Z,2.83
2023-04-03T03:00:49.843Z,2.50
2023-04-03T03:03:17.443Z,2.80
2023-04-03T03:05:45.630Z,2.80
2023-04-03T03:08:13.353Z,2.83
2023-04-03T03:10:41.071Z,2.85
2023-04-03T03:13:08.892Z,2.63
2023-04-03T03:15:36.583Z,2.60
2023-04-03T03:18:06.461Z,2.70
2023-04-03T03:20:34.484Z,2.70
2023-04-03T03:23:02.371Z,2.90
2023-04-03T03:25:30.000Z,2.80
2023-04-03T03:27:57.665Z,2.67
2023-04-03T03:30:26.247Z,2.83
2023-04-03T03:32:53.986Z,2.67
2023-04-03T03:35:23.068Z,3.10
2023-04-03T03:37:50.887Z,2.60
2023-04-03T03:40:18.825Z,2.83
2023-04-03T03:42:46.520Z,3.00
2023-04-03T03:45:14.272Z,2.72
2023-04-03T03:47:41.945Z,2.83
2023-04-03T03:50:11.216Z,2.70
2023-04-03T03:52:40.709Z,2.90
2023-04-03T03:55:09.107Z,2.83
2023-04-03T03:57:36.945Z,3.03
2023-04-03T04:00:05.147Z,2.80
2023-04-03T04:02:33.153Z,2.63
2023-04-03T04:05:00.994Z,2.63
2023-04-03T04:07:30.177Z,2.95
2023-04-03T04:09:59.269Z,3.00
2023-04-03T04:12:27.068Z,2.93
2023-04-03T04:14:54.726Z,2.63
2023-04-03T04:17:23.871Z,2.80
2023-04-03T04:19:51.591Z,2.87
2023-04-03T04:22:19.338Z,2.92
2023-04-03T04:24:47.073Z,2.97
2023-04-03T04:27:16.633Z,2.90
2023-04-03T04:29:44.406Z,2.70
2023-04-03T04:32:12.141Z,3.13
2023-04-03T04:34:39.809Z,3.00
2023-04-03T04:37:07.456Z,2.95
2023-04-03T04:39:35.782Z,2.70
2023-04-03T04:42:03.447Z,2.90
2023-04-03T04:44:32.442Z,3.03
2023-04-03T04:47:00.126Z,3.10
2023-04-03T04:49:27.811Z,2.67
2023-04-03T04:51:55.364Z,2.80
2023-04-03T04:54:23.121Z,2.78
2023-04-03T04:56:50.823Z,2.73
2023-04-03T04:59:20.614Z,3.15
2023-04-03T05:01:50.451Z,2.67
2023-04-03T05:04:18.780Z,3.10
2023-04-03T05:06:46.562Z,2.90
2023-04-03T05:09:14.225Z,3.10
2023-04-03T05:11:41.799Z,3.13
2023-04-03T05:14:09.422Z,2.85
2023-04-03T05:16:37.333Z,3.40
2023-04-03T05:19:06.355Z,3.20
2023-04-03T05:21:34.004Z,3.00
2023-04-03T05:24:03.620Z,3.00
2023-04-03T05:26:32.286Z,3.17
2023-04-03T05:29:00.375Z,3.33
2023-04-03T05:31:30.575Z,3.40
2023-04-03T05:33:58.464Z,3.28
2023-04-03T05:36:27.709Z,3.22
2023-04-03T05:38:57.301Z,3.30
2023-04-03T05:41:25.790Z,3.30
2023-04-03T05:43:53.438Z,3.50
2023-04-03T05:46:23.073Z,3.33
2023-04-03T05:48:50.917Z,3.40
2023-04-03T05:51:21.138Z,3.70
2023-04-03T05:53:52.009Z,3.63
2023-04-03T05:56:19.611Z,3.70
2023-04-03T05:58:47.330Z,3.67
2023-04-03T06:01:15.946Z,4.50
2023-04-03T06:03:43.744Z,4.43
2023-04-03T06:06:15.120Z,5.28
2023-04-03T06:08:42.820Z,3.90
2023-04-03T06:11:11.817Z,3.97
2023-04-03T06:13:39.468Z,3.47
2023-04-03T06:16:07.757Z,5.07
2023-04-03T06:18:35.316Z,4.38
2023-04-03T06:21:03.748Z,3.20
2023-04-03T06:23:31.351Z,3.28
2023-04-03T06:25:59.307Z,3.42
2023-04-03T06:28:28.393Z,3.30
2023-04-03T06:30:56.203Z,3.25
2023-04-03T06:33:23.852Z,2.70
2023-04-03T06:35:51.990Z,2.70
2023-04-03T06:38:19.727Z,2.90
2023-04-03T06:40:48.050Z,2.57
2023-04-03T06:43:15.701Z,4.20
2023-04-03T06:45:44.689Z,3.33
2023-04-03T06:48:12.624Z,2.65
2023-04-03T06:50:40.376Z,2.95
2023-04-03T06:53:08.132Z,2.90
2023-04-03T06:55:37.229Z,2.80
2023-04-03T06:58:05.546Z,3.00
2023-04-03T07:00:33.587Z,2.70
2023-04-03T07:03:02.715Z,2.40
2023-04-03T07:05:30.395Z,2.30
2023-04-03T07:07:58.063Z,2.45
2023-04-03T07:10:25.830Z,2.45
2023-04-03T07:12:53.663Z,2.30
2023-04-03T07:15:21.406Z,2.38
2023-04-03T07:17:49.569Z,2.40
2023-04-03T07:20:18.953Z,2.40
2023-04-03T07:22:46.848Z,2.55
2023-04-03T07:25:14.607Z,2.50
2023-04-03T07:27:42.435Z,2.05
2023-04-03T07:30:11.292Z,2.30
2023-04-03T07:32:39.065Z,2.38
2023-04-03T07:35:07.347Z,2.58
2023-04-03T07:37:36.725Z,2.28
2023-04-03T07:40:05.333Z,2.10
2023-04-03T07:42:33.030Z,2.33
2023-04-03T07:45:01.199Z,2.13
2023-04-03T07:47:29.074Z,2.00
2023-04-03T07:49:58.228Z,2.10
2023-04-03T07:52:26.631Z,2.20
2023-04-03T07:54:55.940Z,2.38
2023-04-03T07:57:23.620Z,2.50
2023-04-03T07:59:51.279Z,2.40
2023-04-03T08:02:18.883Z,2.53
2023-04-03T08:04:46.621Z,2.33
2023-04-03T08:07:14.388Z,2.13
2023-04-03T08:09:42.358Z,2.42
2023-04-03T08:12:12.487Z,2.40
2023-04-03T08:14:40.271Z,2.30
2023-04-03T08:17:10.460Z,2.10
2023-04-03T08:19:38.114Z,2.47
2023-04-03T08:22:06.273Z,2.60
2023-04-03T08:24:34.188Z,2.40
2023-04-03T08:27:01.972Z,5.95
2023-04-03T08:29:32.057Z,5.43
2023-04-03T08:32:00.744Z,2.65
2023-04-03T08:34:28.388Z,2.90
2023-04-03T08:36:56.329Z,5.13
2023-04-03T08:39:24.056Z,3.80
2023-04-03T08:41:52.132Z,10.52
2023-04-03T08:44:27.485Z,2.97
2023-04-03T08:47:05.534Z,2.40
2023-04-03T08:49:35.781Z,2.17
2023-04-03T08:52:12.183Z,2.50
2023-04-03T08:54:49.554Z,2.80
2023-04-03T08:57:17.553Z,2.70
2023-04-03T08:59:45.579Z,2.90
2023-04-03T09:02:27.571Z,4.57
2023-04-03T09:04:56.586Z,2.08
2023-04-03T09:07:32.655Z,2.10
2023-04-03T09:10:03.921Z,2.00
2023-04-03T09:12:40.135Z,1.67
2023-04-03T09:15:20.123Z,1.80
2023-04-03T09:18:04.874Z,1.80
2023-04-03T09:20:45.288Z,2.10
2023-04-03T09:23:21.731Z,1.80
2023-04-03T09:25:51.058Z,1.70
2023-04-03T09:28:18.813Z,1.60
2023-04-03T09:30:47.409Z,1.60
2023-04-03T09:33:17.538Z,1.40
2023-04-03T09:35:48.567Z,1.40
2023-04-03T09:38:20.067Z,1.60
2023-04-03T09:40:49.224Z,1.38
2023-04-03T09:43:28.516Z,1.70
2023-04-03T09:45:57.522Z,1.65
2023-04-03T09:48:29.237Z,1.40
2023-04-03T09:51:02.396Z,1.40
2023-04-03T09:53:37.534Z,1.30
2023-04-03T09:56:21.584Z,1.40
2023-04-03T09:58:51.952Z,2.00
2023-04-03T10:01:27.467Z,1.70
2023-04-03T10:04:08.512Z,1.20
2023-04-03T10:06:41.550Z,1.30
2023-04-03T10:09:19.471Z,1.27
2023-04-03T10:12:05.653Z,1.38
2023-04-03T10:14:34.589Z,1.70
2023-04-03T10:17:17.074Z,1.58
2023-04-03T10:19:50.275Z,1.33
2023-04-03T10:22:34.924Z,1.60
2023-04-03T10:25:11.801Z,2.05
2023-04-03T10:27:51.439Z,1.50
2023-04-03T10:30:32.460Z,1.65
2023-04-03T10:33:07.631Z,1.83
2023-04-03T10:35:47.159Z,1.83
2023-04-03T10:38:20.888Z,1.60
2023-04-03T10:40:56.969Z,1.80
2023-04-03T10:43:35.650Z,1.48
2023-04-03T10:46:12.146Z,1.33
2023-04-03T10:48:53.274Z,1.88
2023-04-03T10:51:30.010Z,1.63
2023-04-03T10:54:06.922Z,1.30
2023-04-03T10:56:39.179Z,1.30
2023-04-03T10:59:18.886Z,1.50
2023-04-03T11:01:50.158Z,1.40
2023-04-03T11:04:22.140Z,1.20
2023-04-03T11:06:55.681Z,1.27
2023-04-03T11:09:28.022Z,2.08
2023-04-03T11:12:03.160Z,2.20
2023-04-03T11:14:35.632Z,2.55
2023-04-03T11:17:17.512Z,1.90
2023-04-03T11:19:51.008Z,1.40
2023-04-03T11:22:26.046Z,1.10
2023-04-03T11:25:03.997Z,1.20
2023-04-03T11:27:39.165Z,1.25
2023-04-03T11:30:11.890Z,2.17
2023-04-03T11:32:57.849Z,2.10
2023-04-03T11:35:27.417Z,1.40
2023-04-03T11:37:57.671Z,1.20
2023-04-03T11:40:30.854Z,1.40
2023-04-03T11:43:08.718Z,2.10
2023-04-03T11:45:40.220Z,1.48
2023-04-03T11:48:29.370Z,1.40
2023-04-03T11:50:59.260Z,1.40
2023-04-03T11:53:36.633Z,1.30
2023-04-03T11:56:27.674Z,1.13
2023-04-03T11:59:19.350Z,1.30
2023-04-03T12:01:48.628Z,1.38
2023-04-03T12:04:19.159Z,1.17
2023-04-03T12:07:22.018Z,1.15
2023-04-03T12:10:01.560Z,1.40
2023-04-03T12:12:36.150Z,1.33
2023-04-03T12:15:27.772Z,1.45
2023-04-03T12:17:55.700Z,1.33
2023-04-03T12:20:54.329Z,1.35
2023-04-03T12:23:31.275Z,1.30
2023-04-03T12:26:22.843Z,1.40
2023-04-03T12:28:54.600Z,1.30
2023-04-03T12:31:25.422Z,1.30
2023-04-03T12:34:11.449Z,1.40
2023-04-03T12:36:48.801Z,1.23
2023-04-03T12:39:37.088Z,1.40
2023-04-03T12:42:24.209Z,1.30
2023-04-03T12:45:02.729Z,1.45
2023-04-03T12:47:37.107Z,1.50
2023-04-03T12:50:06.873Z,1.37
2023-04-03T12:52:39.916Z,1.70
2023-04-03T12:55:16.665Z,1.65
2023-04-03T12:57:46.600Z,2.42
2023-04-03T13:00:29.843Z,1.70
2023-04-03T13:02:57.703Z,1.80
2023-04-03T13:05:25.748Z,2.10
2023-04-03T13:08:00.125Z,2.03
2023-04-03T13:10:27.828Z,1.92
2023-04-03T13:12:59.339Z,1.67
2023-04-03T13:15:30.309Z,1.60
2023-04-03T13:17:58.374Z,1.15
2023-04-03T13:20:28.525Z,1.20
2023-04-03T13:23:01.695Z,1.43
2023-04-03T13:25:32.547Z,1.30
2023-04-03T13:28:13.321Z,1.50
2023-04-03T13:30:43.196Z,1.30
2023-04-03T13:33:23.756Z,1.20
2023-04-03T13:35:57.965Z,1.15
2023-04-03T13:38:28.144Z,1.45
2023-04-03T13:40:58.553Z,1.30
2023-04-03T13:43:29.115Z,1.40
2023-04-03T13:46:02.227Z,1.40
2023-04-03T13:48:37.904Z,1.30
2023-04-03T13:51:08.707Z,1.52
2023-04-03T13:53:44.660Z,1.52
2023-04-03T13:56:22.963Z,1.40
2023-04-03T13:59:06.265Z,1.42
2023-04-03T14:01:45.015Z,1.35
2023-04-03T14:04:17.327Z,1.33
2023-04-03T14:06:45.645Z,1.38
2023-04-03T14:09:13.949Z,1.25
2023-04-03T14:11:42.899Z,1.70
2023-04-03T14:14:16.006Z,1.50
2023-04-03T14:16:45.676Z,1.48
2023-04-03T14:19:21.756Z,1.40
2023-04-03T14:21:49.827Z,1.40
2023-04-03T14:24:17.629Z,1.45
2023-04-03T14:26:46.102Z,1.60
2023-04-03T14:29:16.276Z,6.75
2023-04-03T14:31:46.792Z,1.92
2023-04-03T14:34:15.659Z,1.30
2023-04-03T14:36:45.120Z,1.60
2023-04-03T14:39:17.886Z,1.60
2023-04-03T14:41:46.082Z,1.80
2023-04-03T14:44:15.078Z,1.50
2023-04-03T14:46:56.144Z,1.50
2023-04-03T14:49:29.068Z,1.90
2023-04-03T14:51:57.184Z,2.40
2023-04-03T14:54:28.646Z,1.63
2023-04-03T14:56:58.266Z,1.30
2023-04-03T14:59:28.595Z,1.85
2023-04-03T15:01:56.384Z,2.00
2023-04-03T15:04:24.181Z,1.52
2023-04-03T15:06:53.935Z,2.10
2023-04-03T15:09:24.700Z,1.65
2023-04-03T15:11:53.909Z,1.80
2023-04-03T15:14:35.409Z,1.83
2023-04-03T15:17:07.708Z,2.00
2023-04-03T15:19:39.674Z,2.15
2023-04-03T15:22:07.762Z,1.80
2023-04-03T15:24:35.554Z,1.60
2023-04-03T15:27:03.632Z,2.25
2023-04-03T15:29:31.328Z,1.65
2023-04-03T15:31:59.392Z,1.90
2023-04-03T15:34:28.500Z,2.13
2023-04-03T15:36:56.253Z,3.35
2023-04-03T15:39:24.638Z,3.42
2023-04-03T15:41:53.316Z,2.75
2023-04-03T15:44:20.971Z,2.50
2023-04-03T15:46:52.240Z,1.80
2023-04-03T15:49:20.929Z,1.50
2023-04-03T15:51:50.010Z,1.50
2023-04-03T15:54:17.957Z,1.40
2023-04-03T15:56:45.626Z,1.50
2023-04-03T15:59:13.358Z,1.63
2023-04-03T16:01:41.520Z,1.75
2023-04-03T16:04:11.030Z,1.60
2023-04-03T16:06:39.831Z,1.30
2023-04-03T16:09:11.659Z,1.65
2023-04-03T16:11:40.888Z,1.45
2023-04-03T16:14:08.982Z,1.50
2023-04-03T16:16:37.429Z,1.60
2023-04-03T16:19:06.494Z,1.70
2023-04-03T16:21:34.337Z,1.58
2023-04-03T16:24:03.185Z,1.77
2023-04-03T16:26:32.129Z,1.80
2023-04-03T16:28:59.849Z,1.77
2023-04-03T16:31:29.485Z,1.70
2023-04-03T16:33:58.346Z,1.50
2023-04-03T16:36:27.452Z,1.50
2023-04-03T16:38:55.092Z,1.30
2023-04-03T16:41:22.700Z,1.40
2023-04-03T16:43:52.444Z,1.75
2023-04-03T16:46:20.467Z,1.40
2023-04-03T16:48:48.245Z,1.30
2023-04-03T16:51:15.969Z,1.60
2023-04-03T16:53:43.947Z,2.00
2023-04-03T16:56:11.811Z,2.00
2023-04-03T16:58:39.383Z,1.83
2023-04-03T17:01:16.266Z,1.60
2023-04-03T17:03:44.400Z,1.40
2023-04-03T17:06:16.903Z,1.58
2023-04-03T17:08:44.896Z,1.65
2023-04-03T17:11:12.661Z,1.60
2023-04-03T17:13:40.373Z,1.60
2023-04-03T17:16:11.896Z,1.40
2023-04-03T17:18:41.226Z,1.05
2023-04-03T17:21:09.652Z,1.10
2023-04-03T17:23:40.540Z,1.50
2023-04-03T17:26:08.226Z,1.20
2023-04-03T17:28:36.922Z,1.30
2023-04-03T17:31:04.693Z,1.20
2023-04-03T17:33:32.339Z,1.30
2023-04-03T17:36:04.361Z,1.50
2023-04-03T17:38:32.300Z,1.50
2023-04-03T17:41:01.593Z,1.40
2023-04-03T17:43:30.693Z,1.60
2023-04-03T17:46:03.920Z,2.30
2023-04-03T17:48:31.858Z,2.95
2023-04-03T17:51:04.573Z,2.50
2023-04-03T17:53:32.298Z,2.80
2023-04-03T17:55:59.982Z,2.97
2023-04-03T17:58:28.340Z,2.30
2023-04-03T18:00:57.005Z,2.45
2023-04-03T18:03:24.739Z,4.60
2023-04-03T18:05:55.318Z,3.17
2023-04-03T18:08:24.562Z,2.90
2023-04-03T18:10:53.137Z,2.50
2023-04-03T18:13:20.786Z,2.63
2023-04-03T18:15:50.573Z,2.80
2023-04-03T18:18:18.283Z,2.55
2023-04-03T18:20:46.424Z,2.92
2023-04-03T18:23:14.168Z,2.63
2023-04-03T18:25:43.483Z,2.97
2023-04-03T18:28:11.412Z,2.85
2023-04-03T18:30:39.649Z,2.90
2023-04-03T18:33:07.585Z,3.70
2023-04-03T18:35:35.310Z,3.00
2023-04-03T18:38:03.178Z,2.72
2023-04-03T18:40:32.730Z,2.85
2023-04-03T18:43:03.155Z,3.10
2023-04-03T18:45:31.498Z,2.88
2023-04-03T18:47:59.573Z,1.92
2023-04-03T18:50:27.320Z,1.73
2023-04-03T18:52:55.100Z,1.80
2023-04-03T18:55:23.271Z,2.00
2023-04-03T18:57:51.054Z,2.38
2023-04-03T19:00:20.530Z,1.88
2023-04-03T19:02:49.683Z,2.30
2023-04-03T19:05:19.698Z,2.20
2023-04-03T19:07:49.278Z,2.00
2023-04-03T19:10:19.933Z,1.95
2023-04-03T19:12:50.049Z,1.67
2023-04-03T19:15:21.108Z,1.70
2023-04-03T19:17:48.971Z,2.03
2023-04-03T19:20:17.277Z,1.70
2023-04-03T19:22:45.336Z,1.95
2023-04-03T19:25:13.605Z,2.00
2023-04-03T19:27:42.499Z,2.10
2023-04-03T19:30:12.816Z,2.10
2023-04-03T19:32:42.008Z,2.28
2023-04-03T19:35:10.428Z,2.17
2023-04-03T19:37:38.345Z,2.60
2023-04-03T19:40:07.622Z,2.40
2023-04-03T19:42:36.841Z,2.20
2023-04-03T19:45:05.259Z,2.90
2023-04-03T19:47:33.374Z,2.30
2023-04-03T19:50:02.684Z,2.30
2023-04-03T19:52:30.427Z,2.00
2023-04-03T19:54:58.297Z,2.40
2023-04-03T19:57:26.124Z,2.50
2023-04-03T19:59:53.930Z,2.92
2023-04-03T20:02:21.693Z,2.90
2023-04-03T20:04:49.565Z,2.90
2023-04-03T20:07:18.782Z,2.80
2023-04-03T20:09:46.744Z,2.70
2023-04-03T20:12:14.499Z,2.80
2023-04-03T20:14:42.550Z,3.03
2023-04-03T20:17:10.396Z,3.10
2023-04-03T20:19:38.689Z,2.60
2023-04-03T20:22:06.412Z,2.63
2023-04-03T20:24:35.412Z,2.70
2023-04-03T20:27:03.188Z,2.78
2023-04-03T20:29:30.987Z,2.80
2023-04-03T20:31:58.795Z,2.72
2023-04-03T20:34:26.737Z,2.35
2023-04-03T20:36:55.259Z,2.50
2023-04-03T20:39:24.680Z,2.58
2023-04-03T20:41:54.540Z,2.47
2023-04-03T20:44:22.377Z,2.25
2023-04-03T20:46:53.441Z,2.78
2023-04-03T20:49:22.636Z,2.65
2023-04-03T20:51:51.242Z,2.70
2023-04-03T20:54:19.174Z,4.95
2023-04-03T20:56:47.329Z,3.80
2023-04-03T20:59:16.885Z,3.17
2023-04-03T21:01:44.838Z,3.05
2023-04-03T21:04:17.025Z,3.03
2023-04-03T21:07:23.017Z,3.85
2023-04-03T21:10:29.079Z,3.10
2023-04-03T21:13:34.745Z,3.05
2023-04-03T21:16:02.244Z,3.50
2023-04-03T21:19:03.726Z,3.28
2023-04-03T21:21:31.380Z,2.65
2023-04-03T21:23:59.254Z,2.35
2023-04-03T21:26:27.946Z,1.90
2023-04-03T21:28:56.532Z,1.80
2023-04-03T21:31:24.761Z,1.90
2023-04-03T21:33:54.017Z,2.00
2023-04-03T21:36:21.706Z,2.07
2023-04-03T21:38:51.548Z,1.77
2023-04-03T21:41:19.106Z,1.77
2023-04-03T21:43:47.860Z,1.70
2023-04-03T21:46:15.674Z,2.20
2023-04-03T21:48:43.434Z,2.03
2023-04-03T21:51:12.565Z,2.30
2023-04-03T21:53:41.571Z,1.90
2023-04-03T21:56:09.342Z,1.73
2023-04-03T21:58:37.071Z,1.80
2023-04-03T22:01:11.632Z,1.98
2023-04-03T22:03:40.905Z,1.70
2023-04-03T22:06:09.292Z,1.92
2023-04-03T22:08:38.730Z,1.90
2023-04-03T22:11:08.491Z,1.75
2023-04-03T22:13:37.396Z,1.80
2023-04-03T22:16:05.987Z,1.60
2023-04-03T22:18:34.150Z,1.87
2023-04-03T22:21:01.841Z,1.50
2023-04-03T22:23:29.494Z,1.90
2023-04-03T22:26:03.358Z,1.75
2023-04-03T22:28:32.589Z,1.77
2023-04-03T22:31:02.375Z,1.60
2023-04-03T22:33:30.383Z,1.80
2023-04-03T22:35:58.064Z,1.70
2023-04-03T22:38:25.764Z,1.77
2023-04-03T22:41:02.202Z,1.60
2023-04-03T22:43:31.586Z,1.50
2023-04-03T22:46:01.398Z,1.60
2023-04-03T22:48:29.446Z,1.83
2023-04-03T22:50:57.285Z,1.73
2023-04-03T22:53:25.008Z,1.60
2023-04-03T22:55:57.047Z,1.70
2023-04-03T22:58:26.948Z,1.60
2023-04-03T23:00:55.087Z,1.50
2023-04-03T23:03:23.365Z,1.83
2023-04-03T23:05:52.532Z,1.63
2023-04-03T23:08:21.027Z,1.60
2023-04-03T23:10:48.811Z,1.70
2023-04-03T23:13:16.496Z,1.70
2023-04-03T23:15:45.719Z,1.85
2023-04-03T23:18:13.481Z,1.70
2023-04-03T23:20:41.478Z,1.80
2023-04-03T23:23:09.336Z,1.70
2023-04-03T23:25:37.728Z,1.50
2023-04-03T23:28:05.420Z,1.70
2023-04-03T23:30:33.732Z,1.67
2023-04-03T23:33:02.771Z,1.85
2023-04-03T23:35:30.549Z,1.98
2023-04-03T23:37:58.276Z,1.73
2023-04-03T23:40:25.953Z,1.90
2023-04-03T23:42:53.577Z,2.10
2023-04-03T23:45:21.276Z,2.33
2023-04-03T23:47:49.089Z,1.75
2023-04-03T23:50:18.114Z,2.00
2023-04-03T23:52:45.722Z,2.08
2023-04-03T23:55:13.582Z,2.00
2023-04-03T23:57:42.919Z,1.70
